首页
METAR-TAF:

METAR-TAF

机场 :

烏赫爾堡, 捷克共和国

纬度: 49-01-46N, 经度: 017-26-23E, 海拔: 177米

当前天气观测

该预报发布于7小时和59分钟前的14:00 UTC
风速2节,风向多变
温度 23°C
湿度 89%
气压 1011 hPa
能见度10公里或以上
少量云层高于2300英尺
少量云层高于3500英尺, 积雨云.
散云层高于4200英尺
雷暴, 小雨

METAR: LKKU 191400Z VRB02KT 9999 -TSRA FEW023 FEW035CB SCT042 23/21 Q1011

时间: 23:59 (21:59 UTC)


TAF: 丢失

超过4000个机场的气象观测和天气预报(METAR&TAF报告)。

可查询的气象台以黄色和红色小点在地图上表示。

将鼠标移到小点上方,可查看气象台名称。

然后点击查看天气观测和预报。

如需切换地图:点击带黑十字的绿色按钮放大地图;点击带横线的绿色按钮缩小地图;或者点击绿色箭头查看邻近地区的地图。


METAR-TAF: